D/T METAR WX W/DIR W/SPE G/SPE TEMP DEWP
16/01/19 02:50 EGXW 160250Z 22015KT 9999 BKN013 BKN025 08/06 Q1005 GRN SW (220°) 17.3mph 8°C 6°C
16/01/19 01:50 EGXW 160150Z 22017KT 9999 SCT015 BKN025 BKN140 08/06 Q1006 WHT SW (220°) 19.6mph 8°C 6°C
16/01/19 00:50 EGXW 160050Z AUTO 23015KT 9999 BKN130/// 08/06 Q1007 SW (230°) 17.3mph 8°C 6°C
15/01/19 23:50 EGXW 152350Z AUTO 23016KT 9999 SCT028/// BKN140/// 08/06 Q1008 SW (230°) 18.4mph 8°C 6°C
15/01/19 22:50 EGXW 152250Z 23012KT 9999 FEW025 BKN140 08/05 Q1009 BLU SW (230°) 13.8mph 8°C 5°C
15/01/19 21:50 EGXW 152150Z 23012KT 9999 FEW030 BKN140 08/05 Q1010 BLU SW (230°) 13.8mph 8°C 5°C
15/01/19 20:50 EGXW 152050Z 23012KT 9999 FEW030 BKN140 08/06 Q1010 BLU SW (230°) 13.8mph 8°C 6°C
15/01/19 19:50 EGXW 151950Z 23010KT 9999 FEW035 BKN150 08/06 Q1011 BLU NOSIG SW (230°) 11.5mph 8°C 6°C
15/01/19 18:50 EGXW 151850Z 23010KT 9999 FEW018 BKN031 08/06 Q1012 BLU NOSIG SW (230°) 11.5mph 8°C 6°C
15/01/19 17:50 EGXW 151750Z 22011KT 9999 FEW020 BKN030 08/05 Q1012 BLU NOSIG SW (220°) 12.7mph 8°C 5°C
15/01/19 16:50 EGXW 151650Z 22011KT 9999 BKN032 09/05 Q1013 BLU NOSIG SW (220°) 12.7mph 9°C 5°C
15/01/19 15:50 EGXW 151550Z 24008KT 9999 FEW016 BKN035 09/04 Q1013 BLU NOSIG WSW (240°) 9.2mph 9°C 4°C
15/01/19 14:50 EGXW 151450Z 25011KT 9999 FEW016 BKN038 BKN250 09/05 Q1013 BLU NOSIG WSW (250°) 12.7mph 9°C 5°C
15/01/19 13:50 EGXW 151350Z 23009KT 9999 FEW018 SCT040 BKN250 09/05 Q1014 BLU NOSIG SW (230°) 10.4mph 9°C 5°C
15/01/19 12:50 EGXW 151250Z 25010KT 9999 FEW040 BKN250 09/05 Q1015 BLU NOSIG WSW (250°) 11.5mph 9°C 5°C
15/01/19 11:50 EGXW 151150Z 25012KT 9999 FEW040 09/05 Q1015 BLU NOSIG WSW (250°) 13.8mph 9°C 5°C
15/01/19 10:50 EGXW 151050Z 25016KT 9999 FEW040 09/06 Q1016 BLU NOSIG WSW (250°) 18.4mph 9°C 6°C
15/01/19 09:50 EGXW 150950Z 24012KT 9999 FEW040 08/05 Q1016 BLU NOSIG WSW (240°) 13.8mph 8°C 5°C
15/01/19 08:50 EGXW 150850Z 25008KT 9999 FEW040 BKN200 06/04 Q1016 BLU NOSIG WSW (250°) 9.2mph 6°C 4°C
15/01/19 07:50 EGXW 150750Z 24011KT 9999 FEW040 06/04 Q1016 BLU NOSIG WSW (240°) 12.7mph 6°C 4°C
15/01/19 06:50 EGXW 150650Z 23012KT 9999 FEW028 BKN040 06/05 Q1016 BLU NOSIG SW (230°) 13.8mph 6°C 5°C
15/01/19 05:50 EGXW 150550Z 23012KT 9999 FEW025 BKN035 06/04 Q1016 BLU SW (230°) 13.8mph 6°C 4°C
15/01/19 04:50 EGXW 150450Z 23011KT 9999 FEW027 BKN032 05/04 Q1017 BLU SW (230°) 12.7mph 5°C 4°C
15/01/19 03:50 EGXW 150350Z 24013KT 9999 FEW018 BKN035 04/03 Q1017 BLU WSW (240°) 15.0mph 4°C 3°C
15/01/19 02:50 EGXW 150250Z AUTO 24012KT 9999 FEW170/// 04/02 Q1018 WSW (240°) 13.8mph 4°C 2°C
15/01/19 01:50 EGXW 150150Z AUTO 23011KT 9999 FEW040/// 04/02 Q1018 SW (230°) 12.7mph 4°C 2°C
15/01/19 00:50 EGXW 150050Z AUTO 25009KT 9999 NCD 05/02 Q1019 WSW (250°) 10.4mph 5°C 2°C
14/01/19 23:50 EGXW 142350Z 24012KT 9999 SCT028 05/03 Q1019 BLU WSW (240°) 13.8mph 5°C 3°C
14/01/19 22:50 EGXW 142250Z 23007KT 9999 FEW032 05/03 Q1020 BLU NOSIG SW (230°) 8.1mph 5°C 3°C
14/01/19 21:50 EGXW 142150Z 25008KT 9999 FEW040 06/04 Q1020 BLU NOSIG WSW (250°) 9.2mph 6°C 4°C
14/01/19 20:50 EGXW 142050Z 25007KT 9999 SCT040 SCT060 06/03 Q1020 BLU NOSIG WSW (250°) 8.1mph 6°C 3°C
14/01/19 19:50 EGXW 141950Z 25006KT 9999 BKN045 06/03 Q1020 BLU NOSIG WSW (250°) 6.9mph 6°C 3°C
14/01/19 18:50 EGXW 141850Z 26007KT 9999 FEW028 BKN040 06/04 Q1020 BLU NOSIG W (260°) 8.1mph 6°C 4°C
14/01/19 17:50 EGXW 141750Z 24006KT 9999 FEW025 BKN048 06/03 Q1020 BLU NOSIG WSW (240°) 6.9mph 6°C 3°C
14/01/19 16:50 EGXW 141650Z 23002KT 9999 FEW040 BKN050 06/03 Q1020 BLU NOSIG SW (230°) 2.3mph 6°C 3°C
14/01/19 15:50 EGXW 141550Z 33002KT 9999 FEW030 BKN050 06/03 Q1020 BLU NOSIG NNW (330°) 2.3mph 6°C 3°C
14/01/19 14:50 EGXW 141450Z 32005KT 9999 FEW030 SCT040 BKN250 07/03 Q1020 BLU NOSIG NW (320°) 5.8mph 7°C 3°C
14/01/19 13:50 EGXW 141350Z 32008KT 9999 -SHRA FEW018 BKN045 08/03 Q1020 BLU NOSIG -SHRA NW (320°) 9.2mph 8°C 3°C
14/01/19 12:50 EGXW 141250Z 31004KT 9999 FEW026 BKN045 07/04 Q1020 BLU NOSIG NW (310°) 4.6mph 7°C 4°C
14/01/19 11:50 EGXW 141150Z 31005KT 9999 -SHRA SCT026 BKN048 07/04 Q1020 BLU NOSIG -SHRA NW (310°) 5.8mph 7°C 4°C
14/01/19 10:50 EGXW 141050Z 31006KT 9999 BKN025 06/04 Q1019 BLU TEMPO SCT024 WHT NW (310°) 6.9mph 6°C 4°C
14/01/19 09:50 EGXW 140950Z 31004KT 9999 FEW020 BKN048 06/04 Q1019 BLU NOSIG NW (310°) 4.6mph 6°C 4°C
14/01/19 08:50 EGXW 140850Z 30004KT 9999 FEW030 BKN036 05/03 Q1018 BLU NOSIG WNW (300°) 4.6mph 5°C 3°C
14/01/19 07:50 EGXW 140750Z 28006KT 9999 FEW025 05/03 Q1017 BLU NOSIG W (280°) 6.9mph 5°C 3°C
14/01/19 06:50 EGXW 140650Z 28005KT 9999 FEW040 SCT180 05/03 Q1016 BLU NOSIG W (280°) 5.8mph 5°C 3°C
14/01/19 05:50 EGXW 140550Z 29006KT CAVOK 05/03 Q1016 BLU WNW (290°) 6.9mph 5°C 3°C
14/01/19 04:50 EGXW 140450Z 30009KT CAVOK 06/03 Q1015 BLU WNW (300°) 10.4mph 6°C 3°C
14/01/19 03:50 EGXW 140350Z AUTO 30011KT 9999 NCD 06/03 Q1014 WNW (300°) 12.7mph 6°C 3°C
14/01/19 02:50 EGXW 140250Z AUTO 30010KT 9999 NCD 06/03 Q1013 WNW (300°) 11.5mph 6°C 3°C
14/01/19 01:50 EGXW 140150Z AUTO 30009KT 9999 NCD 06/03 Q1013 WNW (300°) 10.4mph 6°C 3°C
14/01/19 00:50 EGXW 140050Z AUTO 30009KT 9999 NCD 07/03 Q1012 WNW (300°) 10.4mph 7°C 3°C
13/01/19 23:50 EGXW 132350Z AUTO 30011KT 9999 FEW041/// 07/03 Q1012 WNW (300°) 12.7mph 7°C 3°C
13/01/19 22:50 EGXW 132250Z AUTO 30013KT 9999 NCD 07/03 Q1011 WNW (300°) 15.0mph 7°C 3°C
13/01/19 21:50 EGXW 132150Z AUTO 29014KT 9999 NCD 07/04 Q1010 WNW (290°) 16.1mph 7°C 4°C
13/01/19 20:50 EGXW 132050Z AUTO 30013KT 9999 NCD 08/03 Q1010 WNW (300°) 15.0mph 8°C 3°C
13/01/19 19:50 EGXW 131950Z AUTO 30015G25KT 9999 FEW050/// 08/03 Q1009 WNW (300°) 17.3mph 28.8mph 8°C 3°C
13/01/19 18:50 EGXW 131850Z AUTO 30017G27KT 9999 NCD 08/03 Q1009 WNW (300°) 19.6mph 31.1mph 8°C 3°C
13/01/19 17:50 EGXW 131750Z AUTO 30019G30KT 9999 NCD 08/03 Q1008 WNW (300°) 21.9mph 34.5mph 8°C 3°C
13/01/19 16:50 EGXW 131650Z AUTO 30020G36KT 9999 FEW029/// 10/04 Q1008 WNW (300°) 23.0mph 41.4mph 10°C 4°C
13/01/19 15:50 EGXW 131550Z AUTO 30016G30KT 9999 FEW031/// SCT050/// 10/06 Q1007 RERA WNW (300°) 18.4mph 34.5mph 10°C 6°C
13/01/19 14:50 EGXW 131450Z AUTO 29018G31KT 9999 SCT030/// BKN048/// 11/06 Q1007 WNW (290°) 20.7mph 35.7mph 11°C 6°C
13/01/19 13:50 EGXW 131350Z AUTO 28015KT 9999 BKN027/// SCT035/// 11/06 Q1007 W (280°) 17.3mph 11°C 6°C
13/01/19 12:50 EGXW 131250Z AUTO 29018KT 9999 BKN023/// BKN036/// 11/07 Q1008 WNW (290°) 20.7mph 11°C 7°C
13/01/19 11:50 EGXW 131150Z AUTO 27018KT 9999 FEW009/// BKN016/// 10/08 Q1008 W (270°) 20.7mph 10°C 8°C
13/01/19 10:50 EGXW 131050Z AUTO 25012KT 9999 SCT008/// SCT015/// BKN021/// 09/08 Q1009 REDZ WSW (250°) 13.8mph 9°C 8°C
13/01/19 09:50 EGXW 130950Z AUTO 27017KT 9999 BKN012/// 09/07 Q1009 W (270°) 19.6mph 9°C 7°C
13/01/19 08:50 EGXW 130850Z AUTO 28019KT 9999 FEW017/// SCT050/// 10/07 Q1010 W (280°) 21.9mph 10°C 7°C
13/01/19 07:50 EGXW 130750Z AUTO 28018G30KT 9999 BKN016/// SCT020/// 10/07 Q1010 W (280°) 20.7mph 34.5mph 10°C 7°C
13/01/19 06:50 EGXW 130650Z AUTO 27011KT 9999 BKN016/// BKN180/// 10/07 Q1010 W (270°) 12.7mph 10°C 7°C
13/01/19 05:50 EGXW 130550Z AUTO 28020KT 9999 BKN015/// 10/07 Q1011 W (280°) 23.0mph 10°C 7°C
13/01/19 04:50 EGXW 130450Z AUTO 28016G26KT 9999 BKN018/// SCT180/// 10/07 Q1011 W (280°) 18.4mph 29.9mph 10°C 7°C
13/01/19 03:50 EGXW 130350Z AUTO 27013KT 9999 BKN020/// 10/07 Q1012 W (270°) 15.0mph 10°C 7°C
13/01/19 02:50 EGXW 130250Z AUTO 27015KT 9999 FEW023/// BKN110/// BKN150/// 10/07 Q1012 W (270°) 17.3mph 10°C 7°C
13/01/19 01:50 EGXW 130150Z AUTO 28017G28KT 9999 FEW021/// OVC090/// 11/07 Q1013 W (280°) 19.6mph 32.2mph 11°C 7°C
13/01/19 00:50 EGXW 130050Z AUTO 28012G22KT 9999 OVC020/// 11/07 Q1014 W (280°) 13.8mph 25.3mph 11°C 7°C
12/01/19 23:50 EGXW 122350Z AUTO 29014KT 9999 OVC019/// 11/08 Q1014 WNW (290°) 16.1mph 11°C 8°C
12/01/19 22:50 EGXW 122250Z AUTO 29015G26KT 9999 BKN018/// BKN130/// 11/08 Q1014 WNW (290°) 17.3mph 29.9mph 11°C 8°C
12/01/19 21:50 EGXW 122150Z AUTO 29014KT 9999 BKN018/// 11/08 Q1015 WNW (290°) 16.1mph 11°C 8°C
12/01/19 20:50 EGXW 122050Z AUTO 29012KT 9999 BKN019/// BKN100/// 10/08 Q1014 RERA WNW (290°) 13.8mph 10°C 8°C
12/01/19 19:50 EGXW 121950Z AUTO 27007KT 9999 OVC018/// 09/08 Q1015 RERA W (270°) 8.1mph 9°C 8°C
12/01/19 18:50 EGXW 121850Z AUTO 26010KT 9999 -RA OVC018/// 08/07 Q1015 -RA W (260°) 11.5mph 8°C 7°C
12/01/19 17:50 EGXW 121750Z AUTO 26011KT 9999 BKN018/// SCT050/// 08/07 Q1016 RERA W (260°) 12.7mph 8°C 7°C
12/01/19 16:50 EGXW 121650Z AUTO 26010KT 6000 -DZ SCT023/// SCT044/// BKN050/// 07/07 Q1016 -DZ W (260°) 11.5mph 7°C 7°C
12/01/19 15:50 EGXW 121550Z AUTO 27011KT 9999 -RA BKN048/// 08/06 Q1017 -RA W (270°) 12.7mph 8°C 6°C
12/01/19 14:50 EGXW 121450Z AUTO 28015KT 9999 SCT022/// BKN080/// 09/05 Q1017 W (280°) 17.3mph 9°C 5°C
12/01/19 13:50 EGXW 121350Z AUTO 28018KT 9999 FEW024/// BKN080/// 09/05 Q1017 W (280°) 20.7mph 9°C 5°C
12/01/19 12:50 EGXW 121250Z AUTO 28015KT 9999 FEW022/// BKN060/// 09/06 Q1018 W (280°) 17.3mph 9°C 6°C
12/01/19 11:50 EGXW 121150Z AUTO 28013KT 9999 SCT023/// BKN090/// 09/05 Q1018 W (280°) 15.0mph 9°C 5°C
12/01/19 10:50 EGXW 121050Z AUTO 27012KT 9999 BKN090/// 09/06 Q1019 W (270°) 13.8mph 9°C 6°C
12/01/19 09:50 EGXW 120950Z AUTO 27012KT 9999 BKN080/// 08/06 Q1019 W (270°) 13.8mph 8°C 6°C
12/01/19 08:50 EGXW 120850Z AUTO 26010KT 9999 BKN120/// 08/07 Q1019 REDZ W (260°) 11.5mph 8°C 7°C
12/01/19 07:50 EGXW 120750Z AUTO 26010KT 9000 -DZ SCT003/// BKN011/// 08/08 Q1019 -DZ W (260°) 11.5mph 8°C 8°C
12/01/19 06:50 EGXW 120650Z AUTO 25013KT 8000 BR SCT004/// BKN013/// 08/07 Q1020 RERA BR WSW (250°) 15.0mph 8°C 7°C
12/01/19 05:50 EGXW 120550Z AUTO 24013KT 9999 -DZ FEW007/// BKN014/// 08/07 Q1020 -DZ WSW (240°) 15.0mph 8°C 7°C
12/01/19 04:50 EGXW 120450Z AUTO 25012KT 9999 FEW034/// BKN050/// 08/06 Q1021 WSW (250°) 13.8mph 8°C 6°C
12/01/19 03:50 EGXW 120350Z AUTO 25012KT 9999 SCT014/// BKN060/// 07/06 Q1022 WSW (250°) 13.8mph 7°C 6°C
12/01/19 02:50 EGXW 120250Z AUTO 22010KT 9999 BKN015/// BKN022/// 07/05 Q1023 SW (220°) 11.5mph 7°C 5°C
12/01/19 01:50 EGXW 120150Z AUTO 25010KT 9999 OVC022/// 07/05 Q1024 WSW (250°) 11.5mph 7°C 5°C
12/01/19 00:50 EGXW 120050Z AUTO 24010KT 9999 OVC021/// 08/05 Q1024 WSW (240°) 11.5mph 8°C 5°C
11/01/19 23:50 EGXW 112350Z AUTO 24009KT 9999 OVC026/// 07/05 Q1025 WSW (240°) 10.4mph 7°C 5°C
11/01/19 22:50 EGXW 112250Z AUTO 25008KT 9999 OVC024/// 07/05 Q1026 WSW (250°) 9.2mph 7°C 5°C
11/01/19 21:50 EGXW 112150Z AUTO 25008KT 9999 OVC029/// 07/04 Q1027 WSW (250°) 9.2mph 7°C 4°C
11/01/19 20:50 EGXW 112050Z AUTO 25007KT 9999 OVC029/// 07/03 Q1028 WSW (250°) 8.1mph 7°C 3°C
11/01/19 19:50 EGXW 111950Z AUTO 27006KT 9999 OVC032/// 07/03 Q1028 W (270°) 6.9mph 7°C 3°C
11/01/19 18:50 EGXW 111850Z AUTO 26006KT 9999 OVC030/// 07/03 Q1028 W (260°) 6.9mph 7°C 3°C
11/01/19 17:50 EGXW 111750Z 28006KT 9999 OVC026 07/03 Q1029 BLU NOSIG W (280°) 6.9mph 7°C 3°C
11/01/19 16:50 EGXW 111650Z 29007KT 9999 OVC026 07/03 Q1029 BLU NOSIG WNW (290°) 8.1mph 7°C 3°C
11/01/19 15:50 EGXW 111550Z 32006KT 9999 SCT030 BKN035 07/03 Q1029 BLU NOSIG NW (320°) 6.9mph 7°C 3°C
11/01/19 14:50 EGXW 111450Z 33006KT 9999 FEW032 BKN035 08/04 Q1029 BLU NOSIG NNW (330°) 6.9mph 8°C 4°C
11/01/19 13:50 EGXW 111350Z 33010KT 9999 BKN035 BKN250 08/04 Q1029 BLU NOSIG NNW (330°) 11.5mph 8°C 4°C
11/01/19 12:50 EGXW 111250Z 30008KT 9999 BKN036 08/04 Q1029 BLU NOSIG WNW (300°) 9.2mph 8°C 4°C
11/01/19 11:50 EGXW 111150Z 31009KT 9999 FEW036 BKN042 07/04 Q1030 BLU NOSIG NW (310°) 10.4mph 7°C 4°C
11/01/19 10:50 EGXW 111050Z 29007KT 9999 BKN041 07/03 Q1030 BLU NOSIG WNW (290°) 8.1mph 7°C 3°C
11/01/19 09:50 EGXW 110950Z 29008KT 9999 BKN042 07/03 Q1030 BLU NOSIG WNW (290°) 9.2mph 7°C 3°C
11/01/19 08:50 EGXW 110850Z 30007KT 9999 BKN044 06/03 Q1030 BLU NOSIG WNW (300°) 8.1mph 6°C 3°C
11/01/19 07:50 EGXW 110750Z 31007KT 9999 BKN045 06/03 Q1029 BLU NOSIG NW (310°) 8.1mph 6°C 3°C
11/01/19 06:50 EGXW 110650Z 31007KT CAVOK 06/04 Q1029 BLU NOSIG NW (310°) 8.1mph 6°C 4°C
11/01/19 05:50 EGXW 110550Z 31007KT CAVOK 06/04 Q1029 BLU NW (310°) 8.1mph 6°C 4°C
11/01/19 04:50 EGXW 110450Z 31008KT CAVOK 06/04 Q1029 BLU NW (310°) 9.2mph 6°C 4°C
11/01/19 03:50 EGXW 110350Z 31008KT 9999 FEW042 BKN050 06/04 Q1029 BLU NW (310°) 9.2mph 6°C 4°C
11/01/19 02:50 EGXW 110250Z 32008KT 9999 FEW035 OVC050 06/04 Q1029 BLU NW (320°) 9.2mph 6°C 4°C
11/01/19 01:50 EGXW 110150Z 32008KT CAVOK 06/04 Q1029 BLU NW (320°) 9.2mph 6°C 4°C
11/01/19 00:50 EGXW 110050Z AUTO 31009KT 9999 FEW032/// BKN050/// 06/04 Q1029 RERA NW (310°) 10.4mph 6°C 4°C
10/01/19 23:50 EGXW 102350Z AUTO 31009KT 9999 -RA BKN042/// 07/05 Q1029 -RA NW (310°) 10.4mph 7°C 5°C
10/01/19 22:50 EGXW 102250Z 31009KT 9999 -RA BKN025 OVC060 07/05 Q1029 BLU -RA NW (310°) 10.4mph 7°C 5°C
10/01/19 21:50 EGXW 102150Z 32008KT 9999 -RA SCT022 BKN026 07/05 Q1029 WHT -RA NW (320°) 9.2mph 7°C 5°C
10/01/19 20:50 EGXW 102050Z 31009KT 9999 FEW022 BKN026 07/06 Q1029 BLU TEMPO SCT022 WHT NW (310°) 10.4mph 7°C 6°C
10/01/19 19:50 EGXW 101950Z 30007KT 9999 BKN024 BKN050 07/06 Q1028 WHT TEMPO BKN026 BLU WNW (300°) 8.1mph 7°C 6°C
10/01/19 18:50 EGXW 101850Z 29007KT CAVOK 07/06 Q1028 BLU NOSIG WNW (290°) 8.1mph 7°C 6°C
10/01/19 17:50 EGXW 101750Z 27006KT CAVOK 07/06 Q1028 BLU NOSIG W (270°) 6.9mph 7°C 6°C
10/01/19 16:50 EGXW 101650Z 26007KT CAVOK 06/05 Q1028 BLU NOSIG W (260°) 8.1mph 6°C 5°C
10/01/19 15:50 EGXW 101550Z 26007KT 9999 FEW022 OVC050 06/04 Q1028 BLU NOSIG W (260°) 8.1mph 6°C 4°C
10/01/19 15:22 EGXW 101522Z 26008KT 9999 SCT020 BKN050 06/04 Q1028 WHT BECMG FEW020 BLU W (260°) 9.2mph 6°C 4°C
10/01/19 13:50 EGXW 101350Z 25007KT 9000 HZ SCT009 SCT020 BKN042 05/03 Q1028 GRN TEMPO FEW009 SCT020 WHT HZ WSW (250°) 8.1mph 5°C 3°C
10/01/19 13:31 EGXW 101331Z 25007KT 9000 HZ SCT007 BKN020 BKN037 05/03 Q1028 GRN TEMPO FEW007 BKN020 WHT HZ WSW (250°) 8.1mph 5°C 3°C
10/01/19 12:50 EGXW 101250Z 25006KT 7000 -DZ BKN008 04/03 Q1029 GRN TEMPO 9999 NSW FEW008 BKN015 WHT -DZ WSW (250°) 6.9mph 4°C 3°C
10/01/19 12:08 EGXW 101208Z 24005KT 9999 SCT012 BKN016 BKN025 04/02 Q1029 GRN TEMPO FEW012 BKN016 WHT WSW (240°) 5.8mph 4°C 2°C
10/01/19 11:41 EGXW 101141Z 26004KT 9999 FEW013 SCT016 BKN025 04/02 Q1029 WHT TEMPO SCT012 GRN W (260°) 4.6mph 4°C 2°C
10/01/19 10:50 EGXW 101050Z 27006KT 9999 BKN027 03/01 Q1030 BLU TEMPO BKN020 WHT W (270°) 6.9mph 3°C 1°C
10/01/19 09:50 EGXW 100950Z 26007KT 9999 BKN040 BKN050 02/00 Q1030 BLU NOSIG W (260°) 8.1mph 2°C 0°C
10/01/19 08:50 EGXW 100850Z 26006KT 9999 FEW035 BKN080 BKN250 02/M00 Q1030 BLU NOSIG W (260°) 6.9mph 2°C 0°C
10/01/19 07:50 EGXW 100750Z 24004KT 9999 FEW042 SCT050 BKN080 02/M00 Q1030 BLU NOSIG WSW (240°) 4.6mph 2°C 0°C
10/01/19 06:50 EGXW 100650Z 24003KT CAVOK 02/M00 Q1030 BLU NOSIG WSW (240°) 3.5mph 2°C 0°C
10/01/19 05:50 EGXW 100550Z 26004KT CAVOK 02/M01 Q1030 BLU W (260°) 4.6mph 2°C -1°C